Monarch, Colorado
Current Conditions -  °F | °C
As of 5:14 PM on Thursday 27 Nov 2014 (Local Time) from KMYP Reporting Station
Clear Clear  
Wind Chill: -10°   Ceiling: Unl
Heat Index: -1°   Visibility: 10mi
Dew Point: -9°   Wind: 36mph
Humidity: 55%   Direction: 280°W
Pressure: 30.58"   Gusts: NA
Location:  38.54°N, 106.31°W
Report Text: KMYP 280014Z AUTO 28031KT 10SM CLR M01/M09 A3058 RMK AO2
Loading
Personal Weather Stations






























Interactive Weather Map New forecast layout! Learn more

10-Day Weather Forecast

Advertisements
Track Severe Weather on mobile